Aeroporto :
LOGIN :

Iscrizione | Disclaimer

   EN    FR    IT 

 










Sommario :    VFR   VFR Marginale   IFR   IFR Intensivo   IFR Molto Intensivo
Visibilità : 
Base nubi : 
>= 8 km
>= 3000ft
5 / 8 km
1000 / 3000 ft
1500m / 5 km
500 / 1000 ft
800 / 1500m
200 / 500 ft
< 800m
< 200 ft
Simboli :   Temporali  Nebbia  Neve Forte  Precipitazioni Forti  Vento > 20 kt
SIGMETs :   Varie  Temporali  Ghiacco  Turbolenza  Onda orograficha  Ceneri Vulcaniche






- Altitudine del aeroporto : 1249 ft


ETSN - Neuburg AB

ULTIMO METAR :
  • 202320Z 20006KT 9999 BKN045 03/01 Q1017 BLU

METARs OBSOLETI :
  • 202220Z 22003KT 9999 FEW040 01/M00 Q1017 BLU+
  • 202120Z 21003KT 9999 FEW220 03/M00 Q1017 BLU+
  • 202103Z 21004KT 9999 FEW220 04/01 Q1017 BLU+FCST CANCEL

TAF TAF ETSN
Valido dal 21 a 00 ore il 21 a 09 ore UTC


202300Z 2100/2109 22012G22KT 9999 NSW SCT030 BKN060
BECMG 2101/2103 28015G25KT 9999 NSW SCT030
TEMPO 2101/2104 29020G35KT 4000 SHRA BKN015TCU BY ETGL



MetMap, La meteo Aeronautica in un colpo d'occhio ! - Copyright ORBIFLY Dicembre 2007 - Disclaimer

ORBIFLY MET'MAP TEAM :

Programmazione e sviluppo : Alexandra Zaïnal
Concezione : Baudouin d'Aumeries
Aiuto per la programmazione : Marc-Olivier Méhu
Supporto tecnico e logistico : Manuel Goepfert
Aiuto per la traduzione : Arnaldo La Scala

Contatto : metmap@orbifly.com




FONTI E CREDITI :

   NOAA